DLH2PH EDDH-EVRA
Flight info
| Callsign | DLH2PH |
|---|---|
| Flight time | N/A |
| Altitude | 41000 |
| Route | LUGEG3G/33 LUGEG P605 MEGAR DCT MATEK DCT NINTA DCT ADAXA DCT ORVIX |
| Aircraft | A359/H-SDE2E3GHIJ3J4J5LM1ORWXY/LB1D1 |
Departure
| Time | 2026-04-24 18:55 |
|---|---|
| Airport | Hamburg Helmut Schmidt Airport (EDDH) |
Arrival
| Time | N/A |
|---|---|
| Airport | Riga International Airport (EVRA) |
| Time | Latitude | Longitude | Altitude | Speed | Heading |
|---|---|---|---|---|---|
| 2026-04-24 18:54 | 53.75102 | 9.98630 | 6429 ft | 244 kts | 61° |
| 2026-04-24 18:55 | 53.76422 | 10.04472 | 6996 ft | 284 kts | 62° |
| 2026-04-24 18:55 | 53.77226 | 10.07605 | 7446 ft | 294 kts | 60° |
| 2026-04-24 18:55 | 53.78080 | 10.10690 | 8387 ft | 285 kts | 58° |
| 2026-04-24 18:56 | 53.78945 | 10.13668 | 9152 ft | 286 kts | 58° |
| 2026-04-24 18:56 | 53.79832 | 10.16706 | 9871 ft | 290 kts | 57° |
| 2026-04-24 18:56 | 53.80730 | 10.19798 | 10447 ft | 297 kts | 58° |
| 2026-04-24 18:56 | 53.81663 | 10.23008 | 10740 ft | 314 kts | 58° |
| 2026-04-24 18:57 | 53.82650 | 10.26427 | 11015 ft | 330 kts | 58° |
| 2026-04-24 18:57 | 53.83677 | 10.30010 | 11259 ft | 344 kts | 59° |
| 2026-04-24 18:57 | 53.84721 | 10.33669 | 11681 ft | 352 kts | 59° |
| 2026-04-24 18:57 | 53.85789 | 10.37430 | 12195 ft | 357 kts | 59° |
| 2026-04-24 18:58 | 53.86873 | 10.41249 | 12727 ft | 361 kts | 59° |
| 2026-04-24 18:58 | 53.87966 | 10.45104 | 13264 ft | 365 kts | 59° |
| 2026-04-24 18:58 | 53.89070 | 10.49003 | 13799 ft | 369 kts | 59° |
| 2026-04-24 18:58 | 53.90188 | 10.52953 | 14274 ft | 373 kts | 59° |
| 2026-04-24 18:59 | 53.91315 | 10.56930 | 14782 ft | 375 kts | 60° |
| 2026-04-24 18:59 | 53.92443 | 10.60931 | 15292 ft | 378 kts | 60° |
| 2026-04-24 18:59 | 53.93585 | 10.64909 | 15801 ft | 379 kts | 58° |
| 2026-04-24 18:59 | 53.95031 | 10.68628 | 16307 ft | 377 kts | 48° |
| 2026-04-24 19:00 | 53.96712 | 10.72047 | 16813 ft | 378 kts | 44° |
| 2026-04-24 19:00 | 53.98510 | 10.75320 | 17304 ft | 380 kts | 41° |
| 2026-04-24 19:00 | 54.00370 | 10.78566 | 17776 ft | 383 kts | 41° |
| 2026-04-24 19:00 | 54.02521 | 10.82302 | 18338 ft | 387 kts | 41° |
| 2026-04-24 19:01 | 54.04344 | 10.85511 | 18749 ft | 390 kts | 42° |
| 2026-04-24 19:01 | 54.06221 | 10.88871 | 19155 ft | 393 kts | 42° |
| 2026-04-24 19:01 | 54.08105 | 10.92287 | 19565 ft | 397 kts | 42° |
| 2026-04-24 19:01 | 54.09995 | 10.95743 | 19968 ft | 400 kts | 43° |
| 2026-04-24 19:02 | 54.11249 | 10.98045 | 20241 ft | 402 kts | 43° |